Time;durP1;ratioP1;P1;durP2;ratioP2;P2;SDS_P1;SDS_P2;PMS_P1;PMS_P2;Temp;Humidity;BMP_temperature;BMP_pressure;BME280_temperature;BME280_humidity;BME280_pressure;Samples;Min_cycle;Max_cycle;Signal;HPM_P1;HPM_P2
2022/11/30 00:02:09;;;;;;;88.97;41.15;;;;;;;-1.88;90.34;101033.98;2180060;81;21006;-83
2022/11/30 00:05:11;;;;;;;77.30;37.42;;;;;;;-1.87;90.42;101034.36;2182509;81;21015;-83
2022/11/30 00:08:13;;;;;;;103.22;48.00;;;;;;;-1.89;90.32;101032.73;2184496;81;21068;-84
2022/11/30 00:11:17;;;;;;;82.80;38.02;;;;;;;-1.90;90.34;101029.28;2182836;81;21466;-83
2022/11/30 00:14:18;;;;;;;95.32;44.13;;;;;;;-1.90;90.32;101029.75;2178130;81;20959;-83
2022/11/30 00:17:19;;;;;;;92.50;45.48;;;;;;;-1.91;90.44;101039.31;2182857;81;21088;-83
2022/11/30 00:20:20;;;;;;;89.28;43.15;;;;;;;-1.93;90.40;101038.98;2184860;81;20994;-84
2022/11/30 00:23:21;;;;;;;89.77;40.52;;;;;;;-1.95;90.37;101052.04;2184195;81;21048;-83
2022/11/30 00:26:22;;;;;;;91.00;44.77;;;;;;;-1.96;90.38;101046.45;2184504;81;21021;-84
2022/11/30 00:29:23;;;;;;;83.40;41.63;;;;;;;-1.97;90.36;101049.98;2184784;81;21033;-83
2022/11/30 01:20:49;;;;;;;101.95;42.73;;;;;;;-2.18;91.44;101069.89;2159265;80;20500;-84
2022/11/30 01:23:51;;;;;;;97.60;38.63;;;;;;;-2.21;91.65;101079.58;2135895;81;21786;-83
2022/11/30 01:26:52;;;;;;;95.15;40.98;;;;;;;-2.26;91.95;101076.70;2137802;80;20979;-84
2022/11/30 01:29:53;;;;;;;101.53;42.03;;;;;;;-2.28;92.09;101079.83;2136372;81;21607;-84
2022/11/30 01:32:54;;;;;;;95.50;38.00;;;;;;;-2.29;92.33;101073.38;2137873;81;21011;-83
2022/11/30 01:36:14;;;;;;;100.80;45.48;;;;;;;-2.29;92.49;101079.42;2146109;81;21053;-84
2022/11/30 01:39:14;;;;;;;108.90;44.45;;;;;;;-2.29;92.56;101082.48;2139094;81;21051;-83
2022/11/30 01:42:18;;;;;;;96.80;41.08;;;;;;;-2.30;92.48;101082.94;2134155;81;21019;-80
2022/11/30 01:45:19;;;;;;;99.70;41.90;;;;;;;-2.29;92.72;101087.68;2137920;81;21064;-80
2022/11/30 01:48:20;;;;;;;91.63;37.28;;;;;;;-2.30;92.70;101091.20;2146306;81;20999;-80
2022/11/30 01:51:21;;;;;;;105.78;44.10;;;;;;;-2.31;92.79;101087.77;2144731;80;21088;-80
2022/11/30 01:54:28;;;;;;;97.67;41.10;;;;;;;-2.33;92.89;101093.47;2135824;81;21065;-80
2022/11/30 01:57:37;;;;;;;105.30;42.35;;;;;;;-2.32;93.01;101090.41;2138234;81;21005;-80
2022/11/30 02:00:43;;;;;;;106.35;45.58;;;;;;;-2.31;93.05;101093.38;2133859;81;20966;-80
2022/11/30 02:04:16;;;;;;;103.78;45.95;;;;;;;-2.29;92.99;101091.58;2137553;81;21061;-80
2022/11/30 02:07:17;;;;;;;94.17;40.50;;;;;;;-2.28;92.93;101093.27;2139171;81;21040;-81
2022/11/30 02:10:29;;;;;;;98.92;43.38;;;;;;;-2.23;93.01;101090.48;2138012;81;21068;-81
2022/11/30 02:13:56;;;;;;;84.90;37.60;;;;;;;-2.24;93.01;101085.75;2139494;81;21085;-81
2022/11/30 02:17:45;;;;;;;90.10;37.28;;;;;;;-2.23;92.93;101087.89;2139083;81;21046;-81
2022/11/30 02:21:18;;;;;;;94.32;39.48;;;;;;;-2.23;92.99;101092.62;2132796;81;21059;-81
2022/11/30 02:24:44;;;;;;;94.77;39.70;;;;;;;-2.26;93.01;101090.16;2137405;81;21081;-81
2022/11/30 02:28:14;;;;;;;95.83;41.35;;;;;;;-2.28;93.18;101092.84;2139241;81;21015;-81
2022/11/30 02:31:23;;;;;;;96.78;42.90;;;;;;;-2.30;93.17;101088.14;2107900;81;20974;-81
2022/11/30 02:34:27;;;;;;;93.82;38.38;;;;;;;-2.30;93.21;101087.30;2142478;81;20991;-81
2022/11/30 02:37:30;;;;;;;94.83;40.60;;;;;;;-2.28;93.20;101092.84;2145100;81;20990;-81
2022/11/30 02:40:31;;;;;;;97.90;40.52;;;;;;;-2.29;93.31;101091.58;2132620;81;22754;-81
2022/11/30 02:43:34;;;;;;;91.78;41.10;;;;;;;-2.31;93.26;101090.78;2139402;81;21485;-81
2022/11/30 02:47:10;;;;;;;88.80;40.55;;;;;;;-2.32;93.36;101089.11;2139479;81;21010;-81
2022/11/30 02:50:21;;;;;;;92.97;39.40;;;;;;;-2.34;93.40;101095.65;2140879;81;21517;-81
2022/11/30 02:53:22;;;;;;;93.95;39.13;;;;;;;-2.36;93.49;101102.69;2143519;81;21057;-81
2022/11/30 02:56:25;;;;;;;90.38;40.38;;;;;;;-2.39;93.69;101094.14;2116685;81;21573;-82
2022/11/30 02:59:29;;;;;;;95.00;39.18;;;;;;;-2.41;93.88;101097.27;2145532;81;21051;-81
2022/11/30 03:02:30;;;;;;;91.78;40.95;;;;;;;-2.41;93.86;101096.81;2137380;81;21007;-81
2022/11/30 03:05:31;;;;;;;84.15;39.27;;;;;;;-2.39;93.93;101101.51;2147569;80;21045;-81
2022/11/30 03:08:32;;;;;;;84.35;35.00;;;;;;;-2.39;93.93;101101.51;2145065;81;20990;-81
2022/11/30 03:11:33;;;;;;;86.82;35.70;;;;;;;-2.37;93.85;101097.53;2140474;81;21545;-81
2022/11/30 03:14:34;;;;;;;90.72;38.80;;;;;;;-2.37;93.83;101109.23;2139825;81;21556;-81
2022/11/30 03:17:35;;;;;;;85.62;36.48;;;;;;;-2.39;93.76;101108.01;2143783;80;21032;-81
2022/11/30 03:20:42;;;;;;;84.97;37.65;;;;;;;-2.39;93.79;101109.31;2141280;81;21528;-81
2022/11/30 03:23:43;;;;;;;96.65;40.50;;;;;;;-2.37;93.91;101120.92;2151275;81;21030;-81
2022/11/30 03:26:44;;;;;;;80.90;33.88;;;;;;;-2.38;93.90;101120.09;2157699;81;21622;-81
2022/11/30 03:29:44;;;;;;;86.80;38.23;;;;;;;-2.38;93.86;101125.28;2155547;81;21011;-81
2022/11/30 03:32:46;;;;;;;84.20;36.50;;;;;;;-2.38;93.93;101129.64;2149933;80;21035;-81
2022/11/30 03:35:47;;;;;;;87.72;37.60;;;;;;;-2.36;93.98;101129.14;2153971;81;21037;-81
2022/11/30 03:38:48;;;;;;;83.42;36.53;;;;;;;-2.37;93.94;101124.37;2151165;81;21101;-81
2022/11/30 03:41:49;;;;;;;76.55;32.93;;;;;;;-2.34;93.96;101137.70;2156771;81;21584;-81
2022/11/30 03:44:50;;;;;;;95.40;38.23;;;;;;;-2.30;93.99;101141.89;2159806;81;21020;-81
2022/11/30 03:47:51;;;;;;;94.55;40.12;;;;;;;-2.28;93.94;101138.33;2158169;81;21021;-81
2022/11/30 03:50:52;;;;;;;86.45;37.78;;;;;;;-2.28;94.06;101143.53;2157167;81;21042;-80
2022/11/30 03:53:53;;;;;;;78.33;32.93;;;;;;;-2.24;94.01;101139.05;2159616;81;21018;-80
2022/11/30 03:56:54;;;;;;;82.67;34.60;;;;;;;-2.20;94.05;101144.51;2163904;81;21023;-80
2022/11/30 03:59:55;;;;;;;82.67;36.63;;;;;;;-2.21;93.92;101147.19;2159852;81;21057;-80
2022/11/30 04:02:56;;;;;;;77.17;33.75;;;;;;;-2.23;93.88;101145.09;2157770;80;21304;-79
2022/11/30 04:05:58;;;;;;;85.55;35.92;;;;;;;-2.23;93.89;101138.13;2156573;81;21041;-80
2022/11/30 04:08:59;;;;;;;86.35;35.05;;;;;;;-2.23;93.87;101138.59;2159338;81;21544;-79
2022/11/30 04:12:00;;;;;;;85.38;35.98;;;;;;;-2.26;93.98;101149.50;2159538;81;20996;-80
2022/11/30 04:15:02;;;;;;;87.10;37.90;;;;;;;-2.29;94.02;101149.62;2159713;81;21545;-80
2022/11/30 04:18:03;;;;;;;95.05;38.53;;;;;;;-2.30;94.11;101147.09;2155418;81;21006;-79
2022/11/30 04:21:06;;;;;;;94.50;39.63;;;;;;;-2.32;94.20;101151.04;2160475;81;21007;-80
2022/11/30 04:24:08;;;;;;;91.40;36.95;;;;;;;-2.29;94.23;101157.88;2138403;81;21549;-80
2022/11/30 04:27:09;;;;;;;86.70;35.68;;;;;;;-2.28;94.22;101165.63;2137532;81;21109;-80
2022/11/30 04:30:12;;;;;;;88.20;36.80;;;;;;;-2.27;94.25;101167.31;2141268;81;21080;-79
2022/11/30 04:33:15;;;;;;;92.25;37.80;;;;;;;-2.27;94.33;101170.38;2135344;81;21058;-79
2022/11/30 04:36:18;;;;;;;83.95;35.78;;;;;;;-2.24;94.36;101178.05;2131219;81;21542;-80
2022/11/30 04:39:19;;;;;;;90.60;37.42;;;;;;;-2.20;94.60;101170.97;2143882;81;21058;-80
2022/11/30 04:42:20;;;;;;;88.10;35.45;;;;;;;-2.21;94.67;101165.39;2138000;81;21556;-79
2022/11/30 04:45:21;;;;;;;85.42;34.53;;;;;;;-2.19;94.80;101163.59;2138962;81;21018;-80
2022/11/30 04:48:22;;;;;;;97.40;38.35;;;;;;;-2.15;94.77;101157.34;2140642;81;21031;-80
2022/11/30 04:51:23;;;;;;;72.30;27.20;;;;;;;-2.13;94.73;101167.24;2138188;81;20983;-79
2022/11/30 04:54:24;;;;;;;99.15;37.90;;;;;;;-2.13;94.85;101166.78;2141053;81;21043;-80
2022/11/30 04:57:25;;;;;;;94.28;35.15;;;;;;;-2.15;94.83;101167.75;2138467;81;22240;-79
2022/11/30 05:00:27;;;;;;;104.43;41.00;;;;;;;-2.15;94.77;101163.84;2144790;81;21006;-79
2022/11/30 05:03:27;;;;;;;98.30;36.35;;;;;;;-2.13;94.92;101161.58;2142538;81;22275;-80
2022/11/30 05:06:28;;;;;;;96.47;36.15;;;;;;;-2.11;94.89;101169.30;2143714;81;21565;-79
2022/11/30 05:09:30;;;;;;;93.07;36.08;;;;;;;-2.11;94.87;101158.90;2138889;81;21581;-79
2022/11/30 05:12:31;;;;;;;87.42;35.15;;;;;;;-2.12;94.95;101172.36;2139415;81;21044;-79
2022/11/30 05:15:32;;;;;;;100.15;38.70;;;;;;;-2.12;95.01;101171.06;2141545;81;21021;-80
2022/11/30 05:18:33;;;;;;;91.90;36.55;;;;;;;-2.12;95.19;101172.83;2132966;81;21014;-80
2022/11/30 05:21:34;;;;;;;83.78;31.52;;;;;;;-2.10;95.13;101180.13;2141212;81;20991;-80
2022/11/30 05:24:35;;;;;;;;;;;;;;;-2.06;95.11;101180.38;2099932;82;21008;-80
2022/11/30 05:27:37;;;;;;;88.85;31.68;;;;;;;-2.09;95.09;101181.34;2116768;84;20185;-79
2022/11/30 05:30:40;;;;;;;84.47;33.85;;;;;;;-2.07;95.16;101183.90;2116368;84;21044;-80
2022/11/30 05:33:41;;;;;;;90.42;35.28;;;;;;;-2.09;95.13;101183.95;2114145;83;21557;-79
2022/11/30 05:36:42;;;;;;;89.30;34.03;;;;;;;-2.08;95.25;101186.12;2116386;82;21024;-80
2022/11/30 05:39:43;;;;;;;92.42;35.78;;;;;;;-2.08;95.30;101190.02;2084367;83;21821;-81
2022/11/30 05:42:44;;;;;;;88.82;36.28;;;;;;;-2.07;95.30;101190.41;2126528;83;20954;-81
2022/11/30 05:45:45;;;;;;;90.50;35.15;;;;;;;-2.02;95.27;101188.93;2127706;83;21015;-77
2022/11/30 05:48:46;;;;;;;90.97;34.98;;;;;;;-2.01;95.27;101192.76;2130112;83;20992;-77
2022/11/30 05:51:47;;;;;;;74.32;26.45;;;;;;;-1.95;95.34;101202.08;2127756;83;21015;-77
2022/11/30 05:54:48;;;;;;;92.57;34.30;;;;;;;-1.98;95.47;101199.13;2130677;82;22311;-77
2022/11/30 05:57:49;;;;;;;91.35;35.78;;;;;;;-2.02;95.43;101192.38;2097423;83;21534;-77
2022/11/30 06:00:50;;;;;;;104.60;37.03;;;;;;;-2.00;95.62;101189.23;2129302;83;21000;-77
2022/11/30 06:03:52;;;;;;;103.00;37.93;;;;;;;-1.99;95.58;101190.95;2127686;82;21085;-77
2022/11/30 06:06:54;;;;;;;88.05;34.40;;;;;;;-1.98;95.54;101191.33;2129081;83;20979;-77
2022/11/30 06:09:55;;;;;;;92.40;35.40;;;;;;;-1.96;95.51;101193.89;2127809;82;21041;-77
2022/11/30 06:12:56;;;;;;;96.25;35.20;;;;;;;-1.95;95.50;101201.61;2129892;82;21079;-77
2022/11/30 06:16:04;;;;;;;89.92;34.65;;;;;;;-1.94;95.54;101194.66;2127131;82;20982;-80
2022/11/30 06:19:05;;;;;;;96.55;37.03;;;;;;;-2.00;95.48;101184.49;2129190;82;21027;-78
2022/11/30 06:22:06;;;;;;;87.55;31.25;;;;;;;-1.93;95.56;101195.91;2131838;82;21066;-79
2022/11/30 06:25:08;;;;;;;97.75;35.98;;;;;;;-1.92;95.65;101197.59;2177614;80;21061;-78
2022/11/30 06:28:10;;;;;;;90.20;34.73;;;;;;;-1.92;95.65;101202.80;2180053;80;20966;-78
2022/11/30 06:31:11;;;;;;;92.22;36.95;;;;;;;-1.93;95.63;101199.81;2241683;78;20957;-77
2022/11/30 06:34:12;;;;;;;93.30;33.95;;;;;;;-1.92;95.62;101211.89;2245180;78;21025;-75
2022/11/30 06:37:13;;;;;;;85.28;34.73;;;;;;;-1.90;95.64;101211.85;2244340;78;21073;-78
2022/11/30 06:40:14;;;;;;;86.02;34.20;;;;;;;-1.88;95.60;101207.45;2245086;78;21525;-80
2022/11/30 06:43:15;;;;;;;91.60;36.03;;;;;;;-1.87;95.59;101219.53;2249983;77;21036;-79
2022/11/30 06:46:16;;;;;;;82.27;34.05;;;;;;;-1.86;95.60;101215.58;2245096;78;20940;-79
2022/11/30 06:49:17;;;;;;;83.67;35.33;;;;;;;-1.87;95.59;101222.97;2243211;78;21380;-79
2022/11/30 06:52:18;;;;;;;85.42;32.55;;;;;;;-1.89;95.55;101228.68;2225247;78;21053;-79
2022/11/30 06:55:19;;;;;;;75.32;28.50;;;;;;;-1.91;95.66;101229.22;2245942;78;21082;-79
2022/11/30 06:58:20;;;;;;;77.90;29.70;;;;;;;-1.91;95.68;101227.92;2243401;78;20966;-79
2022/11/30 07:01:22;;;;;;;74.82;32.13;;;;;;;-1.92;95.63;101231.41;2249161;78;20973;-80
2022/11/30 07:04:23;;;;;;;84.42;33.78;;;;;;;-1.93;95.67;101228.42;2243848;78;21019;-79
2022/11/30 07:07:26;;;;;;;74.97;29.05;;;;;;;-1.89;95.81;101222.18;2247958;78;20990;-80
2022/11/30 07:10:27;;;;;;;87.22;33.80;;;;;;;-1.87;96.02;101228.17;2247676;78;21033;-79
2022/11/30 07:13:29;;;;;;;79.03;32.78;;;;;;;-1.83;95.88;101228.89;2243057;78;22174;-79
2022/11/30 07:16:30;;;;;;;81.80;32.93;;;;;;;-1.77;95.84;101237.79;2250665;78;21504;-79
2022/11/30 07:19:34;;;;;;;83.72;33.45;;;;;;;-1.74;95.72;101236.36;2247314;78;20988;-79
2022/11/30 07:22:39;;;;;;;74.70;31.33;;;;;;;-1.68;95.70;101232.21;2248543;78;21057;-79
2022/11/30 07:29:08;;;;;;;75.90;32.78;;;;;;;-1.60;95.63;101242.32;2241236;78;21057;-80
2022/11/30 07:32:10;;;;;;;65.08;29.48;;;;;;;-1.57;95.52;101250.00;2233359;77;20954;-79
2022/11/30 07:35:11;;;;;;;75.25;31.35;;;;;;;-1.57;95.38;101255.21;2234622;78;21018;-82
2022/11/30 07:38:12;;;;;;;69.20;30.02;;;;;;;-1.63;95.25;101253.70;2239695;78;20991;-79
2022/11/30 07:41:14;;;;;;;71.07;32.48;;;;;;;-1.61;95.33;101255.77;2217895;79;21017;-80
2022/11/30 07:44:15;;;;;;;66.28;29.77;;;;;;;-1.61;95.37;101253.63;2239048;79;21030;-82
2022/11/30 07:47:17;;;;;;;66.17;29.15;;;;;;;-1.62;95.41;101260.59;2238920;78;21325;-73
2022/11/30 07:50:18;;;;;;;70.37;30.20;;;;;;;-1.61;95.36;101258.37;2237213;79;21081;-78
2022/11/30 07:53:20;;;;;;;65.83;29.10;;;;;;;-1.57;95.40;101259.58;2238648;79;21326;-77
2022/11/30 07:56:21;;;;;;;74.07;29.35;;;;;;;-1.55;95.32;101253.38;2240201;79;21029;-81
2022/11/30 07:59:22;;;;;;;72.55;31.15;;;;;;;-1.49;95.32;101254.88;2235963;79;21045;-80
2022/11/30 08:02:24;;;;;;;73.12;30.27;;;;;;;-1.45;95.28;101259.91;2230948;79;21569;-75
2022/11/30 08:05:25;;;;;;;70.28;29.90;;;;;;;-1.37;95.26;101266.12;2234442;79;21048;-78
2022/11/30 08:08:31;;;;;;;66.97;29.25;;;;;;;-1.34;95.17;101260.78;2239975;79;21065;-73
2022/11/30 08:11:34;;;;;;;79.55;30.88;;;;;;;-1.31;95.04;101268.47;2233182;77;21041;-77
2022/11/30 08:14:35;;;;;;;66.12;27.70;;;;;;;-1.43;94.68;101267.22;2238987;79;21069;-78
2022/11/30 08:17:37;;;;;;;59.95;26.05;;;;;;;-1.54;94.53;101268.56;2231822;79;21080;-78
2022/11/30 08:20:38;;;;;;;62.27;27.52;;;;;;;-1.61;94.57;101266.17;2239367;78;21082;-77
2022/11/30 08:23:43;;;;;;;61.80;28.67;;;;;;;-1.64;94.66;101264.16;2210588;79;21002;-77
2022/11/30 08:26:44;;;;;;;63.48;27.93;;;;;;;-1.66;94.70;101272.47;2222882;79;20933;-77
2022/11/30 08:29:45;;;;;;;59.65;25.92;;;;;;;-1.68;94.81;101269.11;2233354;79;20951;-77
2022/11/30 08:32:46;;;;;;;69.03;28.65;;;;;;;-1.68;94.85;101265.20;2208856;79;21621;-77
2022/11/30 08:35:47;;;;;;;54.08;22.52;;;;;;;-1.71;94.92;101271.83;2224408;79;21479;-77
2022/11/30 08:38:49;;;;;;;68.05;30.40;;;;;;;-1.69;95.01;101276.50;2224204;79;20992;-79
2022/11/30 08:41:51;;;;;;;57.30;24.43;;;;;;;-1.70;95.02;101263.10;2222671;79;20992;-79
2022/11/30 08:44:54;;;;;;;68.02;28.30;;;;;;;-1.72;95.08;101268.35;2227750;79;21581;-79
2022/11/30 08:47:56;;;;;;;69.03;28.75;;;;;;;-1.72;95.04;101270.95;2225691;78;21055;-79
2022/11/30 08:51:01;;;;;;;60.48;27.87;;;;;;;-1.75;95.02;101274.98;2228082;77;20973;-79
2022/11/30 08:54:02;;;;;;;66.05;27.52;;;;;;;-1.72;95.21;101279.22;2233787;78;21491;-79
2022/11/30 08:57:03;;;;;;;68.78;29.72;;;;;;;-1.71;95.21;101275.73;2236574;77;20938;-78
2022/11/30 09:00:07;;;;;;;62.33;28.55;;;;;;;-1.72;95.22;101290.47;2225630;78;21017;-79
2022/11/30 09:03:08;;;;;;;59.70;26.75;;;;;;;-1.72;95.21;101289.17;2226087;78;21334;-79
2022/11/30 09:06:16;;;;;;;68.17;28.55;;;;;;;-1.72;95.22;101283.12;2204823;79;21001;-79
2022/11/30 09:09:17;;;;;;;71.02;29.90;;;;;;;-1.69;95.27;101289.51;2231164;79;21120;-79
2022/11/30 09:12:18;;;;;;;63.63;27.95;;;;;;;-1.69;95.28;101287.78;2236558;79;21075;-79
2022/11/30 09:15:19;;;;;;;68.45;29.10;;;;;;;-1.69;95.21;101294.28;2230654;79;21037;-79
2022/11/30 09:18:21;;;;;;;70.20;29.00;;;;;;;-1.71;95.21;101284.38;2226475;79;21021;-80
2022/11/30 09:21:33;;;;;;;69.53;29.05;;;;;;;-1.73;95.18;101287.95;2233571;79;21588;-82
2022/11/30 09:24:28;;;;;;;64.20;28.75;;;;;;;-1.73;95.23;101295.75;2228866;78;21012;-80
2022/11/30 09:27:33;;;;;;;66.00;28.98;;;;;;;-1.68;95.38;101295.97;2236658;78;21029;-77
2022/11/30 09:30:35;;;;;;;65.03;28.75;;;;;;;-1.69;95.28;101289.51;2230481;78;21050;-78
2022/11/30 09:33:38;;;;;;;62.08;26.87;;;;;;;-1.66;95.30;101281.58;2233490;78;20939;-80
2022/11/30 09:36:39;;;;;;;72.85;29.35;;;;;;;-1.64;95.34;101281.08;2239352;78;21320;-81
2022/11/30 09:39:40;;;;;;;70.80;30.02;;;;;;;-1.64;95.27;101288.88;2238702;78;20998;-79
2022/11/30 09:42:50;;;;;;;67.20;28.27;;;;;;;-1.62;95.23;101287.08;2231446;78;21556;-79
2022/11/30 09:46:00;;;;;;;66.70;29.25;;;;;;;-1.63;95.17;101286.70;2232043;78;20972;-79
2022/11/30 09:49:07;;;;;;;65.50;29.70;;;;;;;-1.57;95.29;101283.84;2223968;78;21657;-78
2022/11/30 09:52:16;;;;;;;67.78;30.12;;;;;;;-1.54;95.22;101285.48;2225515;78;21354;-78
2022/11/30 09:55:26;;;;;;;71.05;30.25;;;;;;;-1.54;95.16;101294.13;2231459;78;21026;-78
2022/11/30 09:58:33;;;;;;;62.80;28.65;;;;;;;-1.57;94.99;101289.05;2227323;78;20994;-79
2022/11/30 10:01:34;;;;;;;64.60;28.00;;;;;;;-1.52;95.14;101292.33;2218838;78;21437;-82
2022/11/30 10:04:36;;;;;;;69.27;28.80;;;;;;;-1.47;95.19;101291.66;2207385;78;20999;-76
2022/11/30 10:07:57;;;;;;;58.83;27.10;;;;;;;-1.48;94.98;101291.73;2224212;78;20995;-78
2022/11/30 10:11:24;;;;;;;68.55;28.12;;;;;;;-1.48;94.81;101296.95;2225598;78;21046;-79
2022/11/30 10:14:52;;;;;;;55.45;24.37;;;;;;;-1.49;94.73;101285.69;2227138;78;21149;-79
2022/11/30 10:18:24;;;;;;;67.30;28.30;;;;;;;-1.47;94.68;101289.06;2227553;78;21090;-82
2022/11/30 10:21:53;;;;;;;58.65;26.17;;;;;;;-1.45;94.69;101287.71;2229526;78;21032;-79
2022/11/30 10:25:12;;;;;;;61.68;28.15;;;;;;;-1.46;94.47;101292.53;2226163;78;21104;-80
2022/11/30 10:28:36;;;;;;;57.70;26.15;;;;;;;-1.46;94.54;101284.27;2228851;78;21081;-78
2022/11/30 10:31:39;;;;;;;60.58;29.25;;;;;;;-1.37;94.66;101286.95;2233782;79;21054;-81
2022/11/30 10:34:43;;;;;;;71.65;32.28;;;;;;;-1.31;94.66;101280.65;2237354;78;21029;-81
2022/11/30 10:37:46;;;;;;;66.30;30.17;;;;;;;-1.26;94.58;101291.73;2236093;79;21097;-84
2022/11/30 10:40:58;;;;;;;66.75;30.05;;;;;;;-1.20;94.52;101291.02;2235470;78;21541;-80
2022/11/30 10:44:14;;;;;;;61.90;28.42;;;;;;;-1.17;94.29;101291.34;2231092;79;20919;-79
2022/11/30 10:47:22;;;;;;;65.87;29.98;;;;;;;-1.12;94.31;101289.41;2222760;79;21019;-78
2022/11/30 10:50:27;;;;;;;57.40;27.73;;;;;;;-1.12;94.10;101289.41;2238026;77;20959;-78
2022/11/30 10:56:52;;;;;;;70.47;30.85;;;;;;;-1.08;93.97;101290.12;2329083;74;23468;-81
2022/11/30 10:59:56;;;;;;;58.52;26.90;;;;;;;-1.09;94.00;101289.73;2313368;75;21068;-81
2022/11/30 11:02:57;;;;;;;60.95;27.15;;;;;;;-1.09;93.90;101294.48;2304759;75;21421;-80
2022/11/30 11:06:16;;;;;;;54.63;27.30;;;;;;;-1.14;93.70;101297.27;2309694;75;21603;-80
2022/11/30 11:09:37;;;;;;;65.17;27.37;;;;;;;-1.17;93.66;101299.16;2303924;75;21544;-84
2022/11/30 11:12:38;;;;;;;66.90;32.25;;;;;;;-1.16;93.67;101295.63;2309704;75;21055;-82
2022/11/30 11:15:48;;;;;;;63.98;29.52;;;;;;;-1.18;93.54;101294.87;2269739;76;21464;-83
2022/11/30 11:30:19;;;;;;;66.10;31.70;;;;;;;-1.09;93.67;101285.37;2016958;81;55895;-85
2022/11/30 11:33:24;;;;;;;64.67;30.37;;;;;;;-1.05;93.60;101288.69;1979815;88;21062;-84
2022/11/30 11:36:30;;;;;;;60.05;25.40;;;;;;;-1.10;93.21;101288.86;1978111;89;21603;-84
2022/11/30 11:39:31;;;;;;;58.68;25.57;;;;;;;-1.12;93.14;101289.86;1981711;89;21551;-85
2022/11/30 11:42:48;;;;;;;55.90;27.67;;;;;;;-1.14;93.09;101287.31;1969065;88;21003;-84
2022/11/30 11:45:59;;;;;;;62.38;30.12;;;;;;;-1.14;93.02;101293.83;1964732;88;21578;-88
2022/11/30 11:49:14;;;;;;;61.92;29.70;;;;;;;-1.18;92.94;101291.81;2002898;87;21497;-85
2022/11/30 12:00:20;;;;;;;62.95;29.18;;;;;;;-1.20;92.99;101292.31;1820163;93;21246;-88
2022/11/30 12:03:44;;;;;;;57.88;27.87;;;;;;;-1.22;92.84;101287.61;1903993;85;21513;-84
2022/11/30 12:06:47;;;;;;;62.43;29.45;;;;;;;-1.27;92.61;101287.41;2011816;87;21036;-87
2022/11/30 13:18:42;;;;;;;59.73;28.45;;;;;;;-1.27;91.94;101297.83;2038283;84;21564;-85
2022/11/30 13:21:48;;;;;;;64.97;29.45;;;;;;;-1.26;92.09;101293.03;2016475;86;21469;-87
2022/11/30 13:25:12;;;;;;;62.95;29.25;;;;;;;-1.27;91.90;101294.77;2014588;86;21041;-87
2022/11/30 13:29:15;;;;;;;57.62;28.38;;;;;;;-1.29;91.77;101292.70;1990315;86;21029;-87
2022/11/30 13:32:31;;;;;;;63.85;30.60;;;;;;;-1.30;91.61;101298.80;2001855;87;21068;-87
2022/11/30 13:35:40;;;;;;;59.08;28.83;;;;;;;-1.34;91.52;101289.89;1991178;87;21076;-87
2022/11/30 13:38:54;;;;;;;62.48;29.42;;;;;;;-1.33;91.63;101288.97;2012846;87;21053;-87
2022/11/30 13:42:12;;;;;;;68.47;30.55;;;;;;;-1.32;91.69;101289.34;2002454;87;21136;-86
2022/11/30 13:45:43;;;;;;;;;;;;;;;;;;;;;
2022/11/30 13:48:55;;;;;;;59.38;28.57;;;;;;;-1.32;91.47;101298.47;2019884;86;21049;-86
2022/11/30 13:59:58;;;;;;;62.20;31.42;;;;;;;-1.26;91.52;101302.98;1895417;92;21093;-86
2022/11/30 14:03:31;;;;;;;62.43;31.35;;;;;;;-1.23;91.49;101306.77;1853935;93;21515;-88
2022/11/30 14:06:47;;;;;;;60.12;31.07;;;;;;;-1.20;91.43;101313.16;2009277;87;21481;-83
2022/11/30 14:10:16;;;;;;;63.83;31.25;;;;;;;-1.17;91.48;101313.48;2007452;87;21111;-86
2022/11/30 14:13:45;;;;;;;;;;;;;;;;;;;;;
2022/11/30 14:20:18;;;;;;;61.15;31.70;;;;;;;-1.11;91.20;101319.74;1995070;87;21071;-86
2022/11/30 14:23:37;;;;;;;58.85;29.45;;;;;;;-1.13;91.23;101305.92;2003803;86;21037;-86
2022/11/30 14:26:45;;;;;;;64.35;31.68;;;;;;;-1.08;91.22;101308.35;1987125;88;21075;-87
2022/11/30 14:29:52;;;;;;;62.27;30.00;;;;;;;-1.09;91.17;101311.42;1977966;87;21052;-88
2022/11/30 14:33:00;;;;;;;60.90;31.00;;;;;;;-1.08;90.96;101308.35;2005026;85;21093;-87
2022/11/30 14:36:03;;;;;;;56.80;30.62;;;;;;;-1.09;90.74;101314.02;2005681;87;21095;-87
2022/11/30 14:39:08;;;;;;;63.25;31.97;;;;;;;-1.10;90.83;101303.66;1980364;87;21086;-86
2022/11/30 14:42:23;;;;;;;58.63;31.12;;;;;;;-1.12;90.75;101293.31;2005105;87;21041;-87
2022/11/30 14:45:33;;;;;;;57.95;29.32;;;;;;;-1.10;90.83;101308.41;2009456;86;20999;-86
2022/11/30 14:48:34;;;;;;;61.98;30.95;;;;;;;-1.09;90.64;101311.42;2010808;87;21004;-87
2022/11/30 14:51:37;;;;;;;60.73;31.27;;;;;;;-1.09;90.62;101311.87;2010190;87;21673;-88
2022/11/30 14:54:59;;;;;;;59.55;31.05;;;;;;;-1.09;90.65;101306.20;1998063;86;21038;-89
2022/11/30 14:58:43;;;;;;;53.10;26.42;;;;;;;-1.08;90.62;101308.35;2008009;87;21006;-87
2022/11/30 15:01:44;;;;;;;60.55;31.12;;;;;;;-1.05;90.65;101310.83;2005343;87;20979;-86
2022/11/30 15:04:49;;;;;;;55.40;27.82;;;;;;;-1.05;90.51;101314.27;2011210;85;21090;-85
2022/11/30 15:07:50;;;;;;;60.73;31.37;;;;;;;-1.03;90.54;101309.86;2011097;87;21081;-88
2022/11/30 15:10:55;;;;;;;61.25;30.30;;;;;;;-1.00;90.63;101318.00;2006364;87;21024;-87
2022/11/30 15:14:01;;;;;;;61.00;32.20;;;;;;;-0.98;90.65;101317.03;2016115;87;21603;-86
2022/11/30 15:17:02;;;;;;;60.65;31.50;;;;;;;-0.94;90.67;101315.98;2003502;87;21051;-85
2022/11/30 15:20:17;;;;;;;56.15;30.12;;;;;;;-0.94;90.39;101321.19;2012637;86;21067;-87
2022/11/30 15:23:18;;;;;;;62.25;32.15;;;;;;;-0.95;90.42;101319.51;2034096;86;21613;-85
2022/11/30 15:26:47;;;;;;;59.20;29.32;;;;;;;-0.97;90.10;101316.11;2033222;86;20996;-89
2022/11/30 15:30:00;;;;;;;53.08;28.25;;;;;;;-0.96;90.12;101317.83;1995704;87;21494;-87
2022/11/30 15:33:02;;;;;;;55.00;29.90;;;;;;;-0.95;90.05;101315.60;2028834;86;21863;-85
2022/11/30 15:36:04;;;;;;;58.63;29.37;;;;;;;-0.96;89.89;101307.41;2006985;87;21045;-86
2022/11/30 15:39:07;;;;;;;54.83;29.48;;;;;;;-0.95;89.71;101316.06;2018803;86;21028;-86
2022/11/30 15:42:14;;;;;;;52.25;26.65;;;;;;;-0.95;89.80;101314.76;2022128;86;21035;-87
2022/11/30 15:45:22;;;;;;;52.48;28.47;;;;;;;-0.93;89.86;101322.03;2019755;86;21048;-87
2022/11/30 15:48:31;;;;;;;50.67;28.65;;;;;;;-0.93;89.86;101316.39;2019531;86;21481;-86
2022/11/30 15:51:41;;;;;;;58.00;30.30;;;;;;;-0.89;89.97;101317.10;2028146;86;21045;-85
2022/11/30 15:54:53;;;;;;;55.50;29.57;;;;;;;-0.86;89.93;101327.86;2025349;86;21099;-88
2022/11/30 15:58:01;;;;;;;64.50;33.98;;;;;;;-0.86;89.93;101326.55;2021734;86;21043;-87
2022/11/30 16:01:12;;;;;;;65.62;33.63;;;;;;;-0.83;90.07;101329.03;2025415;86;20985;-88
2022/11/30 16:04:13;;;;;;;63.52;33.28;;;;;;;-0.81;90.14;101330.66;2017865;86;21091;-87
2022/11/30 16:07:16;;;;;;;66.47;34.43;;;;;;;-0.80;90.04;101330.20;2022574;86;21420;-86
2022/11/30 16:10:26;;;;;;;65.62;33.75;;;;;;;-0.82;89.97;101333.31;2023671;86;21051;-87
2022/11/30 16:13:30;;;;;;;62.35;33.13;;;;;;;-0.86;89.76;101335.22;2025670;86;21542;-86
2022/11/30 16:16:32;;;;;;;63.10;32.38;;;;;;;-0.89;89.76;101334.50;2017758;86;21015;-86
2022/11/30 16:19:33;;;;;;;60.70;32.38;;;;;;;-0.93;89.67;101339.84;1996492;86;21035;-88
2022/11/30 16:22:36;;;;;;;70.85;34.55;;;;;;;-0.96;89.70;101339.97;2019176;86;21013;-85
2022/11/30 16:25:37;;;;;;;63.23;33.58;;;;;;;-0.98;89.71;101341.78;2022976;86;21072;-86
2022/11/30 16:28:38;;;;;;;64.25;33.90;;;;;;;-0.99;89.79;101337.47;2019195;86;21094;-89
2022/11/30 16:31:40;;;;;;;64.32;32.78;;;;;;;-1.01;89.69;101339.30;2025233;86;21023;-85
2022/11/30 16:34:41;;;;;;;68.55;34.00;;;;;;;-1.02;89.78;101341.50;2022023;86;20985;-86
2022/11/30 16:37:42;;;;;;;64.47;33.70;;;;;;;-1.03;89.63;101342.88;2020163;86;21028;-87
2022/11/30 16:40:43;;;;;;;64.05;35.03;;;;;;;-1.05;89.65;101335.58;2018913;86;21027;-85
2022/11/30 16:43:47;;;;;;;68.30;35.98;;;;;;;-1.03;89.84;101341.58;2023666;86;21076;-86